createdAt,value
2023-03-21T00:03:16.523Z,19.42
2023-03-21T00:13:28.385Z,20.42
2023-03-21T00:23:32.488Z,19.58
2023-03-21T00:33:39.143Z,19.48
2023-03-21T00:43:44.036Z,19.55
2023-03-21T00:53:48.545Z,20.53
2023-03-21T01:04:05.551Z,21.05
2023-03-21T01:14:21.292Z,20.07
2023-03-21T01:24:27.100Z,19.60
2023-03-21T01:34:31.956Z,19.55
2023-03-21T01:44:56.973Z,19.95
2023-03-21T01:55:05.501Z,21.15
2023-03-21T02:05:33.756Z,18.93
2023-03-21T02:15:42.508Z,19.00
2023-03-21T02:26:20.388Z,20.13
2023-03-21T02:36:51.533Z,18.37
2023-03-21T02:47:06.422Z,17.38
2023-03-21T02:57:17.454Z,19.30
2023-03-21T03:07:29.266Z,18.67
2023-03-21T03:17:46.557Z,17.15
2023-03-21T03:27:53.572Z,16.90
2023-03-21T03:38:03.266Z,17.93
2023-03-21T03:48:11.926Z,18.17
2023-03-21T03:58:23.771Z,17.80
2023-03-21T04:08:30.850Z,16.70
2023-03-21T04:18:38.565Z,15.47
2023-03-21T04:28:41.948Z,16.20
2023-03-21T04:39:12.666Z,15.53
2023-03-21T04:49:19.290Z,16.20
2023-03-21T04:59:28.575Z,15.50
2023-03-21T05:09:43.939Z,14.40
2023-03-21T05:19:52.935Z,12.82
2023-03-21T05:29:59.937Z,12.13
2023-03-21T05:40:09.410Z,12.60
2023-03-21T05:50:15.240Z,12.53
2023-03-21T06:00:31.962Z,11.60
2023-03-21T06:11:02.500Z,15.40
2023-03-21T06:21:07.684Z,9.75
2023-03-21T06:31:09.969Z,9.23
2023-03-21T06:41:17.104Z,8.95
2023-03-21T06:51:29.998Z,8.57
2023-03-21T07:01:43.045Z,8.77
2023-03-21T07:11:45.695Z,7.87
2023-03-21T07:21:49.498Z,7.70
2023-03-21T07:31:51.902Z,7.07
2023-03-21T07:42:00.386Z,8.00
2023-03-21T07:52:14.404Z,8.05
2023-03-21T08:02:17.790Z,6.40
2023-03-21T08:12:25.829Z,6.30
2023-03-21T08:22:28.091Z,6.57
2023-03-21T08:32:31.376Z,6.45
2023-03-21T08:42:38.980Z,6.32
2023-03-21T08:52:41.225Z,5.70
2023-03-21T09:02:44.867Z,5.93
2023-03-21T09:12:56.757Z,5.15
2023-03-21T09:23:02.905Z,6.22
2023-03-21T09:33:19.534Z,5.80
2023-03-21T09:43:44.746Z,5.45
2023-03-21T09:53:49.672Z,5.80
2023-03-21T10:04:03.848Z,5.00
2023-03-21T10:14:12.728Z,6.18
2023-03-21T10:24:32.434Z,7.13
2023-03-21T10:34:43.399Z,5.40
2023-03-21T10:44:50.083Z,3.85
2023-03-21T10:55:09.641Z,3.95
2023-03-21T11:05:33.692Z,3.58
2023-03-21T11:15:47.169Z,3.78
2023-03-21T11:25:51.480Z,4.85
2023-03-21T11:36:05.459Z,4.28
2023-03-21T11:46:14.370Z,4.88
2023-03-21T11:56:26.123Z,4.68
2023-03-21T12:06:42.931Z,4.55
2023-03-21T12:17:06.611Z,4.05
2023-03-21T12:27:34.574Z,4.10
2023-03-21T12:38:04.226Z,4.22
2023-03-21T12:48:18.739Z,4.45
2023-03-21T12:58:24.818Z,4.07
2023-03-21T13:08:38.923Z,3.80
2023-03-21T13:18:50.365Z,3.92
2023-03-21T13:28:54.854Z,4.15
2023-03-21T13:39:05.896Z,4.40
2023-03-21T13:49:07.971Z,4.63
2023-03-21T13:59:33.086Z,4.65
2023-03-21T14:09:44.727Z,5.00
2023-03-21T14:19:51.268Z,4.55
2023-03-21T14:29:53.657Z,5.20
2023-03-21T14:40:01.241Z,4.88
2023-03-21T14:50:07.473Z,4.05
2023-03-21T15:00:21.811Z,3.63
2023-03-21T15:10:25.240Z,3.47
2023-03-21T15:20:31.558Z,4.10
2023-03-21T15:30:34.611Z,4.10
2023-03-21T15:40:39.083Z,3.80
2023-03-21T15:50:56.717Z,4.00
2023-03-21T16:01:05.712Z,3.88
2023-03-21T16:11:17.480Z,4.50
2023-03-21T16:21:24.231Z,4.70
2023-03-21T16:31:31.285Z,4.65
2023-03-21T16:41:33.347Z,4.30
2023-03-21T16:51:39.904Z,4.88
2023-03-21T17:01:48.928Z,4.50
2023-03-21T17:11:53.488Z,4.70
2023-03-21T17:21:58.914Z,5.57
2023-03-21T17:32:04.176Z,5.50
2023-03-21T17:42:15.976Z,5.43
2023-03-21T17:52:20.378Z,4.55
2023-03-21T18:02:25.257Z,5.60
2023-03-21T18:12:27.858Z,5.85
2023-03-21T18:22:37.471Z,6.38
2023-03-21T18:32:44.316Z,6.10
2023-03-21T18:43:32.739Z,6.82
2023-03-21T18:53:09.525Z,5.97
2023-03-21T19:03:24.809Z,7.30
2023-03-21T19:13:35.109Z,7.33
2023-03-21T19:24:18.106Z,7.30
2023-03-21T19:34:08.292Z,7.50
2023-03-21T19:44:10.600Z,6.90
2023-03-21T19:54:18.022Z,6.83
2023-03-21T20:04:22.645Z,7.70
2023-03-21T20:14:27.152Z,8.20
2023-03-21T20:24:32.941Z,8.87
2023-03-21T20:34:40.773Z,10.57
2023-03-21T20:45:00.587Z,12.03
2023-03-21T20:55:04.462Z,12.60
2023-03-21T21:15:29.938Z,11.67
2023-03-21T21:25:33.689Z,12.20
2023-03-21T21:35:36.109Z,12.63
2023-03-21T21:45:51.010Z,13.20
2023-03-21T21:56:02.134Z,13.43
2023-03-21T22:06:07.784Z,16.57
2023-03-21T22:16:10.266Z,15.47
2023-03-21T22:26:14.875Z,15.70
2023-03-21T22:36:20.384Z,12.80
2023-03-21T22:46:30.421Z,14.37
2023-03-21T22:56:33.217Z,14.43
2023-03-21T23:06:42.621Z,18.30
2023-03-21T23:16:45.170Z,15.10
2023-03-21T23:26:47.614Z,12.97
2023-03-21T23:36:50.585Z,11.43
2023-03-21T23:46:55.805Z,11.13
2023-03-21T23:57:00.921Z,11.80
